< < Back
Terminal Aerodrome Forecast


Current Version              Previous Versions:   1  2  3  4  5  6  7  8  9  

Terminal Aerodrome Forecast

474
FTUS42 KJAX 020227 AAA
TAFGNV
TAF AMD
KGNV 020227Z 0202/0224 07005KT P6SM BKN015
     FM020800 VRB03KT 5SM BR SCT010 BKN200
      TEMPO 0208/0212 BKN010
     FM021300 10008KT P6SM SCT040 BKN200=

Latest METAR

662
SAUS70 KWBC 020300 RRN
MTRGNV
METAR KGNV 020253Z AUTO 02003KT 10SM OVC023 21/17 A3015 RMK AO2 SLP207
T02110172 53025


USA.gov is the U.S. government's official web portal to all federal, state and local government web resources and services.